Central, Utah
Current Conditions -  °F | °C
As of 2:15 AM on Wednesday 22 Oct 2014 (Local Time) from KSGU Reporting Station
Clear Clear  
Wind Chill: 64°   Ceiling: Unl
Heat Index: 64°   Visibility: 10mi
Dew Point: 36°   Wind: 5mph
Humidity: 34%   Direction: 50°NE
Pressure: 29.96"   Gusts: NA
Location:  37.42°N, 113.63°W
Report Text: KSGU 220815Z AUTO 05004KT 10SM CLR 18/02 A2996 RMK AO1
Loading
Personal Weather Stations






























Interactive Weather Map
Tropical Storm Tracking
New forecast layout! Learn more

10-Day Weather Forecast

Advertisements
Track Severe Weather on mobile